createdAt,value
2017-10-24T00:00:44.748Z,4.27
2017-10-24T00:03:13.355Z,9.20
2017-10-24T00:05:42.537Z,7.63
2017-10-24T00:08:11.527Z,4.40
2017-10-24T00:10:39.952Z,6.37
2017-10-24T00:13:08.380Z,4.07
2017-10-24T00:15:36.709Z,10.53
2017-10-24T00:18:05.216Z,4.73
2017-10-24T00:20:33.524Z,5.23
2017-10-24T00:23:01.880Z,6.83
2017-10-24T00:25:30.179Z,4.30
2017-10-24T00:27:58.556Z,4.20
2017-10-24T00:30:26.885Z,5.90
2017-10-24T00:32:55.156Z,6.10
2017-10-24T00:35:23.537Z,4.37
2017-10-24T00:37:51.791Z,3.80
2017-10-24T00:40:20.231Z,3.87
2017-10-24T00:42:48.684Z,3.90
2017-10-24T00:45:17.172Z,4.33
2017-10-24T00:47:45.479Z,4.90
2017-10-24T00:50:13.955Z,3.93
2017-10-24T00:52:42.317Z,4.27
2017-10-24T00:55:10.723Z,4.20
2017-10-24T00:57:38.999Z,3.70
2017-10-24T01:00:08.225Z,4.23
2017-10-24T01:02:36.556Z,4.93
2017-10-24T01:05:04.923Z,5.30
2017-10-24T01:07:33.331Z,3.97
2017-10-24T01:10:01.592Z,4.80
2017-10-24T01:12:30.080Z,4.33
2017-10-24T01:14:58.371Z,4.93
2017-10-24T01:17:26.839Z,4.27
2017-10-24T01:19:55.156Z,4.40
2017-10-24T01:22:23.620Z,3.87
2017-10-24T01:24:52.000Z,4.53
2017-10-24T01:27:20.558Z,4.73
2017-10-24T01:29:48.873Z,4.70
2017-10-24T01:32:17.219Z,6.13
2017-10-24T01:34:45.567Z,4.83
2017-10-24T01:37:13.903Z,6.33
2017-10-24T01:39:42.231Z,4.63
2017-10-24T01:42:10.587Z,4.10
2017-10-24T01:44:38.892Z,3.97
2017-10-24T01:47:07.384Z,4.37
2017-10-24T01:49:35.871Z,5.17
2017-10-24T01:52:04.176Z,4.43
2017-10-24T01:54:32.640Z,5.47
2017-10-24T01:57:00.943Z,4.10
2017-10-24T01:59:29.472Z,3.67
2017-10-24T02:01:57.785Z,3.23
2017-10-24T02:04:26.065Z,6.67
2017-10-24T02:06:54.369Z,4.50
2017-10-24T02:09:22.872Z,4.20
2017-10-24T02:11:51.159Z,3.70
2017-10-24T02:14:19.615Z,4.70
2017-10-24T02:16:47.921Z,4.00
2017-10-24T02:19:16.372Z,3.90
2017-10-24T02:21:44.687Z,4.07
2017-10-24T02:24:12.960Z,4.40
2017-10-24T02:26:41.418Z,3.73
2017-10-24T02:29:09.704Z,3.80
2017-10-24T02:31:38.164Z,4.40
2017-10-24T02:34:06.468Z,3.63
2017-10-24T02:36:34.772Z,3.97
2017-10-24T02:39:03.092Z,4.83
2017-10-24T02:41:31.499Z,4.33
2017-10-24T02:43:59.780Z,3.73
2017-10-24T02:46:28.100Z,4.00
2017-10-24T02:48:56.531Z,4.27
2017-10-24T02:51:24.855Z,4.33
2017-10-24T02:53:53.248Z,3.90
2017-10-24T02:56:21.576Z,3.73
2017-10-24T02:58:49.883Z,3.83
2017-10-24T03:01:18.216Z,3.97
2017-10-24T03:03:46.567Z,5.40
2017-10-24T03:06:15.039Z,4.60
2017-10-24T03:08:43.328Z,4.40
2017-10-24T03:11:11.643Z,3.47
2017-10-24T03:13:39.919Z,4.27
2017-10-24T03:16:08.364Z,4.13
2017-10-24T03:18:36.648Z,4.30
2017-10-24T03:21:04.955Z,4.07
2017-10-24T03:23:33.219Z,3.87
2017-10-24T03:26:01.700Z,3.83
2017-10-24T03:28:29.995Z,4.03
2017-10-24T03:30:58.345Z,4.27
2017-10-24T03:33:26.695Z,4.33
2017-10-24T03:35:55.011Z,3.87
2017-10-24T03:38:23.378Z,3.87
2017-10-24T03:40:51.763Z,3.40
2017-10-24T03:43:20.203Z,3.80
2017-10-24T03:45:48.520Z,3.60
2017-10-24T03:48:16.912Z,4.70
2017-10-24T03:50:45.272Z,4.20
2017-10-24T03:53:13.720Z,3.93
2017-10-24T03:55:42.040Z,3.50
2017-10-24T03:58:10.495Z,3.63
2017-10-24T04:00:38.803Z,3.40
2017-10-24T04:03:07.068Z,3.53
2017-10-24T04:05:35.543Z,3.60
2017-10-24T04:08:03.915Z,4.80
2017-10-24T04:10:32.223Z,4.27
2017-10-24T04:13:00.539Z,3.70
2017-10-24T04:15:28.868Z,3.80
2017-10-24T04:17:57.207Z,4.27
2017-10-24T04:20:25.619Z,3.57
2017-10-24T04:22:53.901Z,4.90
2017-10-24T04:25:22.195Z,3.63
2017-10-24T04:27:50.480Z,3.90
2017-10-24T04:30:18.776Z,3.40
2017-10-24T04:32:47.187Z,4.10
2017-10-24T04:35:15.816Z,4.03
2017-10-24T04:37:44.088Z,4.20
2017-10-24T04:40:12.379Z,4.00
2017-10-24T04:42:40.715Z,3.57
2017-10-24T04:45:09.015Z,3.93
2017-10-24T04:47:37.407Z,3.67
2017-10-24T04:50:05.839Z,3.83
2017-10-24T04:52:34.192Z,3.60
2017-10-24T04:55:02.473Z,3.10
2017-10-24T04:57:30.815Z,3.90
2017-10-24T04:59:59.093Z,3.47
2017-10-24T05:02:27.432Z,5.17
2017-10-24T05:04:55.736Z,3.73
2017-10-24T05:07:30.812Z,4.00
2017-10-24T05:09:59.247Z,6.10
2017-10-24T05:12:27.574Z,3.50
2017-10-24T05:14:55.866Z,4.30
2017-10-24T05:17:24.286Z,4.70
2017-10-24T05:19:53.183Z,7.30
2017-10-24T05:22:21.476Z,3.60
2017-10-24T05:24:49.780Z,3.67
2017-10-24T05:27:18.093Z,7.53
2017-10-24T05:29:46.359Z,4.77
2017-10-24T05:32:14.653Z,4.97
2017-10-24T05:34:43.071Z,4.40
2017-10-24T05:37:11.391Z,8.00
2017-10-24T05:39:39.795Z,8.30
2017-10-24T05:42:08.129Z,8.53
2017-10-24T05:44:36.595Z,8.63
2017-10-24T05:47:04.908Z,7.10
2017-10-24T05:49:33.215Z,4.60
2017-10-24T05:52:01.624Z,5.10
2017-10-24T05:54:29.923Z,9.93
2017-10-24T05:56:58.517Z,13.33
2017-10-24T05:59:26.787Z,7.33
2017-10-24T06:01:55.190Z,9.73
2017-10-24T06:04:23.640Z,5.47
2017-10-24T06:06:51.949Z,7.00
2017-10-24T06:09:20.311Z,8.50
2017-10-24T06:11:48.664Z,7.40
2017-10-24T06:14:17.167Z,9.30
2017-10-24T06:16:45.553Z,8.47
2017-10-24T06:19:13.844Z,11.93
2017-10-24T06:21:42.239Z,9.20
2017-10-24T06:24:10.541Z,14.13
2017-10-24T06:26:38.995Z,13.40
2017-10-24T06:29:07.303Z,12.50
2017-10-24T06:31:35.727Z,11.60
2017-10-24T06:34:04.295Z,14.73
2017-10-24T06:36:32.680Z,12.93
2017-10-24T06:39:00.943Z,11.00
2017-10-24T06:41:29.287Z,15.40
2017-10-24T06:43:57.698Z,14.33
2017-10-24T06:46:26.144Z,12.00
2017-10-24T06:48:54.435Z,10.53
2017-10-24T06:51:22.747Z,11.90
2017-10-24T06:53:51.000Z,7.77
2017-10-24T06:56:19.347Z,12.93
2017-10-24T06:58:47.739Z,11.97
2017-10-24T07:01:16.090Z,6.10
2017-10-24T07:03:44.450Z,10.07
2017-10-24T07:06:12.804Z,9.27
2017-10-24T07:08:41.271Z,15.20
2017-10-24T07:11:09.608Z,7.83
2017-10-24T07:13:38.060Z,4.53
2017-10-24T07:16:06.404Z,9.30
2017-10-24T07:18:34.773Z,5.53
2017-10-24T07:21:03.087Z,9.20
2017-10-24T07:23:31.689Z,3.30
2017-10-24T07:25:59.984Z,4.43
2017-10-24T07:28:28.267Z,5.90
2017-10-24T07:30:56.820Z,11.83
2017-10-24T07:33:25.123Z,9.13
2017-10-24T07:35:53.420Z,5.80
2017-10-24T07:38:21.691Z,8.00
2017-10-24T07:40:50.013Z,7.43
2017-10-24T07:43:18.288Z,6.70
2017-10-24T07:45:46.686Z,9.10
2017-10-24T07:48:15.093Z,5.93
2017-10-24T07:50:43.575Z,5.53
2017-10-24T07:53:11.849Z,8.07
2017-10-24T07:55:40.153Z,13.90
2017-10-24T07:58:08.420Z,7.00
2017-10-24T08:00:36.748Z,14.13
2017-10-24T08:03:05.345Z,10.17
2017-10-24T08:05:33.832Z,17.80
2017-10-24T08:08:02.145Z,27.23
2017-10-24T08:10:30.500Z,9.33
2017-10-24T08:12:58.903Z,14.10
2017-10-24T08:15:27.251Z,17.43
2017-10-24T08:17:55.679Z,15.70
2017-10-24T08:20:24.011Z,12.80
2017-10-24T08:22:53.448Z,17.90
2017-10-24T08:25:21.955Z,13.33
2017-10-24T08:27:50.214Z,15.57
2017-10-24T08:30:18.530Z,23.53
2017-10-24T08:32:46.827Z,14.73
2017-10-24T08:35:15.256Z,17.20
2017-10-24T08:37:43.708Z,19.27
2017-10-24T08:40:12.034Z,19.53
2017-10-24T08:42:40.358Z,34.73
2017-10-24T08:45:08.788Z,16.33
2017-10-24T08:47:42.439Z,14.27
2017-10-24T08:50:16.020Z,16.67
2017-10-24T08:52:44.346Z,12.33
2017-10-24T09:08:15.042Z,10.40
2017-10-24T09:10:52.481Z,15.03
2017-10-24T09:13:26.140Z,20.87
2017-10-24T09:16:08.505Z,14.13
2017-10-24T09:18:49.246Z,26.20
2017-10-24T09:21:26.564Z,15.73
2017-10-24T09:24:00.208Z,14.53
2017-10-24T09:26:35.484Z,13.13
2017-10-24T09:29:08.917Z,17.90
2017-10-24T09:31:37.999Z,12.43
2017-10-24T09:34:06.355Z,31.93
2017-10-24T09:41:00.404Z,20.43
2017-10-24T09:43:28.758Z,19.33
2017-10-24T09:46:06.082Z,13.03
2017-10-24T09:48:34.607Z,13.80
2017-10-24T09:51:12.493Z,30.97
2017-10-24T09:53:40.802Z,14.30
2017-10-24T09:56:16.617Z,10.37
2017-10-24T09:58:45.548Z,18.07
2017-10-24T10:01:17.383Z,15.13
2017-10-24T10:03:45.859Z,8.87
2017-10-24T10:06:22.600Z,16.10
2017-10-24T10:08:51.277Z,9.10
2017-10-24T10:11:25.973Z,8.83
2017-10-24T10:13:55.665Z,9.03
2017-10-24T10:16:24.390Z,7.00
2017-10-24T10:18:53.128Z,17.80
2017-10-24T10:21:21.749Z,5.17
2017-10-24T10:23:50.351Z,8.00
2017-10-24T10:26:18.864Z,7.37
2017-10-24T10:28:47.218Z,14.17
2017-10-24T10:31:15.518Z,8.47
2017-10-24T10:33:43.839Z,9.40
2017-10-24T10:36:12.316Z,7.47
2017-10-24T10:38:40.643Z,6.57
2017-10-24T10:41:09.252Z,12.70
2017-10-24T10:43:37.543Z,5.73
2017-10-24T10:46:06.159Z,16.60
2017-10-24T10:48:34.819Z,6.90
2017-10-24T10:51:03.338Z,8.10
2017-10-24T10:53:31.833Z,14.73
2017-10-24T10:56:00.204Z,7.30
2017-10-24T10:58:28.707Z,8.27
2017-10-24T11:00:57.287Z,9.67
2017-10-24T11:03:25.716Z,5.23
2017-10-24T11:05:54.589Z,15.93
2017-10-24T11:08:22.915Z,7.07
2017-10-24T11:10:51.340Z,6.33
2017-10-24T11:13:19.680Z,9.40
2017-10-24T11:15:48.018Z,11.63
2017-10-24T11:18:16.435Z,8.03
2017-10-24T11:20:44.767Z,9.90
2017-10-24T11:23:13.143Z,5.60
2017-10-24T11:25:41.513Z,7.40
2017-10-24T11:28:09.796Z,11.73
2017-10-24T11:30:38.180Z,8.40
2017-10-24T11:33:06.455Z,5.13
2017-10-24T11:35:34.792Z,4.80
2017-10-24T11:38:03.217Z,7.57
2017-10-24T11:40:31.806Z,16.73
2017-10-24T11:43:00.173Z,5.20
2017-10-24T11:45:28.497Z,19.43
2017-10-24T11:47:56.801Z,27.23
2017-10-24T11:50:25.103Z,13.53
2017-10-24T11:52:53.396Z,18.40
2017-10-24T11:55:21.736Z,13.87
2017-10-24T11:57:50.091Z,12.00
2017-10-24T12:00:18.526Z,11.37
2017-10-24T12:02:46.876Z,13.07
2017-10-24T12:05:15.168Z,13.50
2017-10-24T12:07:43.483Z,11.07
2017-10-24T12:10:11.778Z,10.83
2017-10-24T12:12:40.120Z,6.47
2017-10-24T12:15:08.463Z,13.97
2017-10-24T12:17:36.888Z,7.93
2017-10-24T12:20:05.295Z,9.40
2017-10-24T12:22:33.580Z,8.10
2017-10-24T12:25:01.901Z,10.23
2017-10-24T12:27:30.408Z,8.43
2017-10-24T12:29:58.728Z,15.67
2017-10-24T12:32:28.356Z,8.17
2017-10-24T12:34:56.699Z,14.23
2017-10-24T12:37:25.057Z,9.73
2017-10-24T12:39:53.366Z,12.63
2017-10-24T12:42:21.805Z,13.73
2017-10-24T12:44:50.367Z,8.03
2017-10-24T12:47:18.711Z,13.33
2017-10-24T12:49:47.032Z,17.47
2017-10-24T12:52:16.240Z,18.90
2017-10-24T12:54:44.535Z,12.57
2017-10-24T12:57:12.919Z,13.47
2017-10-24T12:59:41.262Z,28.10
2017-10-24T13:02:09.579Z,20.60
2017-10-24T13:04:38.887Z,15.20
2017-10-24T13:07:07.378Z,15.90
2017-10-24T13:09:35.667Z,17.37
2017-10-24T13:12:03.657Z,9.30
2017-10-24T13:14:32.205Z,9.90
2017-10-24T13:17:00.655Z,25.87
2017-10-24T13:19:28.942Z,14.70
2017-10-24T13:21:57.423Z,25.20
2017-10-24T13:24:25.729Z,12.63
2017-10-24T13:26:54.320Z,17.30
2017-10-24T13:29:22.705Z,16.30
2017-10-24T13:31:51.148Z,16.60
2017-10-24T13:34:19.611Z,16.50
2017-10-24T13:36:48.109Z,13.33
2017-10-24T13:39:16.614Z,14.77
2017-10-24T13:41:45.072Z,9.53
2017-10-24T13:44:13.392Z,18.60
2017-10-24T13:46:41.818Z,13.67
2017-10-24T13:49:10.479Z,14.87
2017-10-24T13:51:38.788Z,10.93
2017-10-24T13:54:07.068Z,9.50
2017-10-24T13:56:35.537Z,16.07
2017-10-24T13:59:04.039Z,20.63
2017-10-24T14:01:32.432Z,14.43
2017-10-24T14:04:04.956Z,23.43
2017-10-24T14:06:38.664Z,26.30
2017-10-24T14:10:10.470Z,26.87
2017-10-24T14:12:38.815Z,21.37
2017-10-24T14:15:07.805Z,23.83
2017-10-24T14:17:36.215Z,24.97
2017-10-24T14:20:05.528Z,14.90
2017-10-24T14:22:33.840Z,18.20
2017-10-24T14:25:02.433Z,23.20
2017-10-24T14:27:30.856Z,19.83
2017-10-24T14:29:59.713Z,50.60
2017-10-24T14:32:28.224Z,26.33
2017-10-24T14:34:56.581Z,17.13
2017-10-24T14:37:25.061Z,21.83
2017-10-24T14:39:53.537Z,12.50
2017-10-24T14:42:22.096Z,20.13
2017-10-24T14:44:50.422Z,18.20
2017-10-24T14:47:19.379Z,11.77
2017-10-24T14:49:47.669Z,23.97
2017-10-24T14:52:16.087Z,23.90
2017-10-24T14:54:44.484Z,14.83
2017-10-24T14:57:13.046Z,11.07
2017-10-24T14:59:41.364Z,11.80
2017-10-24T15:02:09.778Z,11.63
2017-10-24T15:04:38.145Z,14.13
2017-10-24T15:07:06.465Z,16.00
2017-10-24T15:09:35.105Z,19.33
2017-10-24T15:12:03.476Z,9.60
2017-10-24T15:14:31.792Z,13.20
2017-10-24T15:17:01.135Z,9.23
2017-10-24T15:19:29.640Z,19.30
2017-10-24T15:21:58.052Z,19.73
2017-10-24T15:24:26.376Z,26.90
2017-10-24T15:26:54.736Z,34.40
2017-10-24T15:29:23.162Z,37.87
2017-10-24T15:31:51.513Z,31.83
2017-10-24T15:34:19.815Z,20.07
2017-10-24T15:36:54.783Z,39.13
2017-10-24T15:39:23.105Z,20.17
2017-10-24T15:41:51.451Z,39.77
2017-10-24T15:44:20.327Z,17.23
2017-10-24T15:46:48.776Z,19.53
2017-10-24T15:49:17.065Z,16.70
2017-10-24T15:51:45.384Z,19.93
2017-10-24T15:54:13.780Z,24.57
2017-10-24T15:56:42.636Z,26.87
2017-10-24T15:59:10.921Z,38.13
2017-10-24T16:01:39.804Z,28.27
2017-10-24T16:04:08.272Z,21.43
2017-10-24T16:06:36.644Z,22.93
2017-10-24T16:09:05.307Z,19.43
2017-10-24T16:11:33.809Z,16.33
2017-10-24T16:14:02.229Z,11.70
2017-10-24T16:16:30.585Z,15.63
2017-10-24T16:18:58.887Z,11.57
2017-10-24T16:21:27.303Z,18.17
2017-10-24T16:23:55.776Z,36.40
2017-10-24T16:26:24.679Z,17.13
2017-10-24T16:28:53.347Z,17.27
2017-10-24T16:31:21.841Z,20.83
2017-10-24T16:33:50.212Z,19.13
2017-10-24T16:36:18.504Z,16.37
2017-10-24T16:38:47.409Z,18.77
2017-10-24T16:41:16.151Z,22.50
2017-10-24T16:43:44.420Z,21.10
2017-10-24T16:46:12.723Z,11.63
2017-10-24T16:48:41.251Z,18.57
2017-10-24T16:51:09.689Z,19.67
2017-10-24T16:53:38.583Z,17.63
2017-10-24T16:56:07.062Z,12.50
2017-10-24T16:58:35.495Z,20.93
2017-10-24T17:01:03.831Z,14.10
2017-10-24T17:03:32.352Z,11.90
2017-10-24T17:06:00.705Z,17.60
2017-10-24T17:08:29.363Z,24.90
2017-10-24T17:10:57.735Z,15.90
2017-10-24T17:13:26.191Z,9.57
2017-10-24T17:15:54.667Z,23.07
2017-10-24T17:18:22.968Z,17.63
2017-10-24T17:20:51.348Z,14.07
2017-10-24T17:23:19.722Z,15.37
2017-10-24T17:25:48.044Z,10.07
2017-10-24T17:28:16.332Z,14.40
2017-10-24T17:30:44.648Z,15.30
2017-10-24T17:33:12.943Z,10.47
2017-10-24T17:35:41.276Z,8.83
2017-10-24T17:38:09.761Z,7.87
2017-10-24T17:40:38.100Z,11.33
2017-10-24T17:43:06.591Z,10.97
2017-10-24T17:45:34.884Z,9.63
2017-10-24T17:48:03.152Z,12.83
2017-10-24T17:50:31.460Z,13.20
2017-10-24T17:52:59.755Z,7.57
2017-10-24T17:55:28.087Z,15.37
2017-10-24T17:57:59.685Z,5.57
2017-10-24T18:00:28.915Z,9.57
2017-10-24T18:02:57.321Z,9.47
2017-10-24T18:05:26.724Z,5.27
2017-10-24T18:07:55.372Z,7.23
2017-10-24T18:10:23.715Z,11.60
2017-10-24T18:12:52.252Z,13.30
2017-10-24T18:15:20.584Z,9.10
2017-10-24T18:17:50.285Z,8.90
2017-10-24T18:20:18.830Z,16.07
2017-10-24T18:22:47.197Z,6.60
2017-10-24T18:25:16.252Z,6.43
2017-10-24T18:27:46.104Z,5.00
2017-10-24T18:30:14.474Z,8.43
2017-10-24T18:32:42.801Z,5.33
2017-10-24T18:35:11.305Z,12.93
2017-10-24T18:37:39.767Z,10.77
2017-10-24T18:40:08.907Z,9.87
2017-10-24T18:42:39.168Z,5.90
2017-10-24T18:45:07.567Z,9.60
2017-10-24T18:47:37.694Z,8.30
2017-10-24T18:50:07.959Z,6.10
2017-10-24T18:52:36.672Z,11.00
2017-10-24T18:55:11.230Z,3.77
2017-10-24T18:57:39.699Z,15.03
2017-10-24T19:00:08.332Z,12.87
2017-10-24T19:02:36.699Z,8.53
2017-10-24T19:05:08.023Z,4.40
2017-10-24T19:07:43.212Z,10.80
2017-10-24T19:10:11.864Z,4.47
2017-10-24T19:12:41.012Z,6.60
2017-10-24T19:15:10.308Z,7.17
2017-10-24T19:17:39.444Z,12.73
2017-10-24T19:20:08.687Z,8.73
2017-10-24T19:22:38.130Z,8.83
2017-10-24T19:25:07.332Z,4.77
2017-10-24T19:27:36.246Z,7.63
2017-10-24T19:30:05.366Z,9.47
2017-10-24T19:32:33.948Z,10.60
2017-10-24T19:35:02.279Z,9.23
2017-10-24T19:37:31.427Z,17.00
2017-10-24T19:39:59.763Z,7.30
2017-10-24T19:42:28.541Z,4.23
2017-10-24T19:44:56.893Z,5.23
2017-10-24T19:47:26.176Z,9.50
2017-10-24T19:49:54.647Z,7.50
2017-10-24T19:52:23.507Z,7.27
2017-10-24T19:54:52.383Z,5.63
2017-10-24T19:57:20.744Z,12.97
2017-10-24T19:59:50.048Z,9.43
2017-10-24T20:02:18.644Z,6.47
2017-10-24T20:04:47.008Z,11.53
2017-10-24T20:07:15.568Z,6.63
2017-10-24T20:09:43.851Z,5.20
2017-10-24T20:12:13.199Z,7.30
2017-10-24T20:14:41.539Z,7.93
2017-10-24T20:17:11.580Z,6.90
2017-10-24T20:19:39.967Z,5.60
2017-10-24T20:22:09.569Z,9.77
2017-10-24T20:24:38.065Z,7.70
2017-10-24T20:27:06.423Z,5.77
2017-10-24T20:29:38.276Z,13.00
2017-10-24T20:32:07.299Z,6.73
2017-10-24T20:34:35.758Z,14.90
2017-10-24T20:37:04.178Z,4.20
2017-10-24T20:39:32.679Z,7.23
2017-10-24T20:42:01.262Z,11.53
2017-10-24T20:44:30.008Z,6.33
2017-10-24T20:47:01.722Z,11.60
2017-10-24T20:49:31.042Z,4.93
2017-10-24T20:51:59.428Z,3.40
2017-10-24T20:54:28.016Z,8.83
2017-10-24T20:56:57.022Z,8.00
2017-10-24T20:59:25.423Z,5.30
2017-10-24T21:01:53.896Z,6.70
2017-10-24T21:04:22.187Z,6.80
2017-10-24T21:06:50.885Z,7.70
2017-10-24T21:09:19.451Z,15.07
2017-10-24T21:11:47.815Z,9.70
2017-10-24T21:14:16.139Z,4.27
2017-10-24T21:16:45.213Z,3.93
2017-10-24T21:19:13.603Z,4.40
2017-10-24T21:21:41.912Z,5.10
2017-10-24T21:24:10.245Z,5.03
2017-10-24T21:26:38.677Z,7.50
2017-10-24T21:29:06.976Z,3.30
2017-10-24T21:31:35.338Z,24.43
2017-10-24T21:34:03.627Z,6.10
2017-10-24T21:36:31.959Z,7.13
2017-10-24T21:39:01.259Z,3.40
2017-10-24T21:41:29.603Z,14.47
2017-10-24T21:43:58.124Z,8.23
2017-10-24T21:46:27.211Z,3.90
2017-10-24T21:48:55.531Z,5.50
2017-10-24T21:51:23.856Z,3.77
2017-10-24T21:53:52.180Z,4.03
2017-10-24T21:56:20.544Z,4.67
2017-10-24T21:58:48.812Z,5.13
2017-10-24T22:01:17.113Z,5.60
2017-10-24T22:03:45.403Z,5.33
2017-10-24T22:06:13.858Z,2.70
2017-10-24T22:08:43.122Z,5.83
2017-10-24T22:11:11.459Z,7.60
2017-10-24T22:13:39.743Z,6.30
2017-10-24T22:16:08.182Z,7.13
2017-10-24T22:18:36.643Z,4.40
2017-10-24T22:21:04.951Z,5.83
2017-10-24T22:23:33.248Z,3.33
2017-10-24T22:26:01.535Z,3.50
2017-10-24T22:28:29.815Z,8.40
2017-10-24T22:30:58.116Z,4.10
2017-10-24T22:33:26.499Z,5.60
2017-10-24T22:35:55.680Z,5.90
2017-10-24T22:38:24.219Z,3.67
2017-10-24T22:40:52.575Z,3.17
2017-10-24T22:43:21.036Z,6.23
2017-10-24T22:45:49.359Z,6.20
2017-10-24T22:48:17.792Z,5.07
2017-10-24T22:50:46.104Z,4.07
2017-10-24T22:53:14.390Z,5.83
2017-10-24T22:55:42.706Z,2.70
2017-10-24T22:58:11.639Z,3.67
2017-10-24T23:00:39.943Z,2.53
2017-10-24T23:03:08.232Z,2.50
2017-10-24T23:05:36.560Z,4.17
2017-10-24T23:08:04.888Z,9.03
2017-10-24T23:10:33.378Z,3.20
2017-10-24T23:13:01.721Z,3.60
2017-10-24T23:15:30.233Z,6.53
2017-10-24T23:17:58.671Z,3.87
2017-10-24T23:20:27.059Z,6.57
2017-10-24T23:22:55.511Z,4.50
2017-10-24T23:25:23.811Z,5.83
2017-10-24T23:27:52.147Z,4.17
2017-10-24T23:30:20.563Z,4.13
2017-10-24T23:32:48.840Z,2.33
2017-10-24T23:35:17.316Z,3.00
2017-10-24T23:37:45.619Z,3.47
2017-10-24T23:40:13.936Z,2.40
2017-10-24T23:42:42.335Z,2.30
2017-10-24T23:45:10.660Z,2.57
2017-10-24T23:47:38.966Z,2.40
2017-10-24T23:50:08.236Z,3.80
2017-10-24T23:52:36.503Z,2.83
2017-10-24T23:55:04.873Z,2.47
2017-10-24T23:57:33.156Z,3.10
